createdAt,value
2022-09-05T00:00:05.648Z,99.98
2022-09-05T00:03:03.949Z,100.00
2022-09-05T00:06:00.124Z,99.73
2022-09-05T00:08:43.655Z,99.83
2022-09-05T00:11:42.917Z,99.56
2022-09-05T00:15:15.280Z,98.86
2022-09-05T00:18:45.453Z,98.53
2022-09-05T00:24:25.190Z,98.41
2022-09-05T00:24:33.929Z,98.09
2022-09-05T00:26:36.601Z,98.20
2022-09-05T00:29:20.378Z,98.16
2022-09-05T00:32:15.762Z,97.26
2022-09-05T00:35:19.198Z,97.69
2022-09-05T00:37:50.841Z,97.54
2022-09-05T00:40:28.249Z,97.28
2022-09-05T00:43:03.404Z,97.46
2022-09-05T00:45:38.420Z,97.06
2022-09-05T00:48:21.460Z,97.33
2022-09-05T00:51:03.569Z,97.13
2022-09-05T00:53:40.540Z,97.46
2022-09-05T00:56:25.090Z,97.42
2022-09-05T00:59:24.230Z,98.02
2022-09-05T01:02:00.632Z,98.12
2022-09-05T01:04:40.788Z,97.79
2022-09-05T01:07:24.952Z,97.70
2022-09-05T01:10:05.702Z,97.94
2022-09-05T01:12:53.024Z,97.94
2022-09-05T01:15:33.819Z,98.16
2022-09-05T01:18:23.693Z,97.67
2022-09-05T01:21:19.313Z,98.04
2022-09-05T01:23:56.603Z,98.12
2022-09-05T01:26:53.816Z,98.92
2022-09-05T01:29:31.531Z,99.34
2022-09-05T01:32:22.978Z,99.78
2022-09-05T01:35:28.216Z,100.00
2022-09-05T01:38:01.378Z,100.00
2022-09-05T01:40:37.841Z,100.00
2022-09-05T01:43:21.005Z,100.00
2022-09-05T01:45:52.829Z,100.00
2022-09-05T01:48:33.948Z,100.00
2022-09-05T01:51:28.231Z,100.00
2022-09-05T01:54:24.143Z,100.00
2022-09-05T01:57:07.683Z,99.75
2022-09-05T01:59:48.284Z,99.15
2022-09-05T02:02:37.932Z,98.64
2022-09-05T02:05:20.688Z,98.06
2022-09-05T02:08:23.600Z,97.44
2022-09-05T02:11:04.383Z,97.84
2022-09-05T02:13:49.536Z,97.96
2022-09-05T02:16:24.752Z,97.80
2022-09-05T02:19:01.600Z,97.86
2022-09-05T02:21:55.689Z,97.98
2022-09-05T02:24:29.533Z,97.58
2022-09-05T02:27:38.899Z,97.92
2022-09-05T02:30:10.392Z,96.94
2022-09-05T02:32:55.842Z,97.26
2022-09-05T02:35:33.267Z,97.54
2022-09-05T02:39:11.504Z,98.09
2022-09-05T02:45:09.200Z,98.01
2022-09-05T02:45:11.606Z,97.59
2022-09-05T02:46:55.912Z,98.38
2022-09-05T02:51:58.484Z,98.53
2022-09-05T02:57:39.469Z,100.00
2022-09-05T02:57:46.575Z,99.67
2022-09-05T02:58:53.376Z,100.00
2022-09-05T03:01:34.594Z,100.00
2022-09-05T03:04:18.131Z,100.00
2022-09-05T03:07:00.237Z,100.00
2022-09-05T03:09:37.418Z,100.00
2022-09-05T03:12:50.645Z,100.00
2022-09-05T03:16:01.318Z,100.00
2022-09-05T03:19:07.545Z,100.00
2022-09-05T03:22:10.071Z,100.00
2022-09-05T03:25:01.757Z,100.00
2022-09-05T03:28:04.335Z,100.00
2022-09-05T03:30:51.725Z,100.00
2022-09-05T03:34:17.374Z,100.00
2022-09-05T03:37:05.621Z,100.00
2022-09-05T03:40:15.989Z,100.00
2022-09-05T03:43:20.757Z,100.00
2022-09-05T03:46:04.213Z,100.00
2022-09-05T03:50:16.696Z,100.00
2022-09-05T03:57:05.934Z,100.00
2022-09-05T03:57:27.637Z,100.00
2022-09-05T03:58:59.829Z,100.00
2022-09-05T04:03:21.594Z,100.00
2022-09-05T04:08:08.103Z,100.00
2022-09-05T04:08:26.331Z,100.00
2022-09-05T04:10:34.713Z,100.00
2022-09-05T04:13:09.849Z,100.00
2022-09-05T04:15:44.723Z,100.00
2022-09-05T04:18:28.048Z,100.00
2022-09-05T04:21:08.570Z,100.00
2022-09-05T04:23:49.509Z,100.00
2022-09-05T04:26:31.619Z,100.00
2022-09-05T04:29:09.826Z,100.00
2022-09-05T04:31:50.048Z,100.00
2022-09-05T04:35:00.635Z,100.00
2022-09-05T04:37:48.957Z,100.00
2022-09-05T04:40:39.646Z,100.00
2022-09-05T04:43:15.008Z,100.00
2022-09-05T04:45:48.429Z,100.00
2022-09-05T04:48:23.052Z,100.00
2022-09-05T04:51:12.837Z,100.00
2022-09-05T04:54:13.656Z,100.00
2022-09-05T04:56:47.882Z,100.00
2022-09-05T05:01:54.458Z,100.00
2022-09-05T05:06:08.915Z,100.00
2022-09-05T05:06:11.903Z,100.00
2022-09-05T05:08:28.769Z,100.00
2022-09-05T05:17:22.320Z,100.00
2022-09-05T05:18:07.633Z,100.00
2022-09-05T05:18:08.807Z,100.00
2022-09-05T05:20:42.798Z,100.00
2022-09-05T05:22:58.545Z,100.00
2022-09-05T05:25:44.801Z,100.00
2022-09-05T05:28:24.020Z,100.00
2022-09-05T05:31:01.252Z,100.00
2022-09-05T05:33:36.555Z,100.00
2022-09-05T05:36:09.906Z,100.00
2022-09-05T05:38:50.792Z,100.00
2022-09-05T05:41:26.017Z,100.00
2022-09-05T05:43:55.687Z,100.00
2022-09-05T05:46:32.712Z,100.00
2022-09-05T05:49:28.805Z,100.00
2022-09-05T05:52:18.022Z,100.00
2022-09-05T05:55:09.680Z,100.00
2022-09-05T05:58:11.291Z,100.00
2022-09-05T06:01:09.400Z,100.00
2022-09-05T06:04:44.952Z,100.00
2022-09-05T06:07:25.673Z,100.00
2022-09-05T06:14:48.575Z,100.00
2022-09-05T06:14:55.119Z,99.41
2022-09-05T06:17:02.990Z,97.73
2022-09-05T06:22:07.083Z,96.54
2022-09-05T06:24:00.658Z,94.91
2022-09-05T06:26:57.480Z,92.62
2022-09-05T06:29:51.842Z,91.18
2022-09-05T06:32:35.499Z,90.30
2022-09-05T06:35:23.577Z,88.70
2022-09-05T06:38:06.495Z,87.73
2022-09-05T06:40:48.219Z,87.54
2022-09-05T06:43:32.578Z,87.25
2022-09-05T06:46:54.503Z,86.79
2022-09-05T06:49:28.889Z,86.09
2022-09-05T06:52:46.805Z,84.77
2022-09-05T06:55:47.518Z,84.37
2022-09-05T06:58:57.329Z,84.11
2022-09-05T07:01:59.873Z,83.55
2022-09-05T07:05:23.347Z,81.40
2022-09-05T07:07:27.982Z,80.49
2022-09-05T07:10:16.656Z,80.43
2022-09-05T07:12:58.092Z,79.87
2022-09-05T07:15:38.438Z,78.42
2022-09-05T07:18:15.414Z,78.52
2022-09-05T07:21:17.308Z,77.35
2022-09-05T07:24:06.541Z,76.88
2022-09-05T07:26:52.092Z,76.72
2022-09-05T07:29:31.290Z,76.45
2022-09-05T07:32:03.237Z,75.49
2022-09-05T07:34:36.401Z,74.66
2022-09-05T07:37:15.422Z,72.89
2022-09-05T07:39:52.288Z,73.53
2022-09-05T07:42:27.224Z,72.42
2022-09-05T07:45:02.227Z,71.41
2022-09-05T07:47:34.650Z,71.69
2022-09-05T07:52:32.536Z,69.29
2022-09-05T07:56:50.754Z,69.75
2022-09-05T07:57:01.853Z,70.92
2022-09-05T07:58:50.646Z,69.59
2022-09-05T08:01:22.927Z,68.92
2022-09-05T08:03:57.378Z,68.61
2022-09-05T08:07:25.688Z,67.78
2022-09-05T08:10:08.868Z,66.09
2022-09-05T08:12:27.646Z,65.78
2022-09-05T08:15:10.312Z,65.57
2022-09-05T08:17:56.785Z,65.10
2022-09-05T08:20:37.076Z,64.12
2022-09-05T08:23:12.579Z,64.38
2022-09-05T08:25:57.259Z,64.01
2022-09-05T08:28:37.611Z,62.88
2022-09-05T08:31:14.550Z,61.20
2022-09-05T08:33:46.426Z,60.88
2022-09-05T08:36:27.579Z,58.83
2022-09-05T08:38:59.876Z,60.30
2022-09-05T08:41:51.310Z,58.85
2022-09-05T08:46:39.569Z,58.52
2022-09-05T08:47:32.451Z,55.39
2022-09-05T08:50:34.285Z,54.03
2022-09-05T08:53:26.169Z,54.68
2022-09-05T08:56:10.381Z,55.73
2022-09-05T08:59:27.651Z,52.02
2022-09-05T09:02:45.502Z,51.43
2022-09-05T09:05:01.359Z,53.58
2022-09-05T09:07:50.771Z,52.20
2022-09-05T09:10:32.813Z,49.54
2022-09-05T09:13:25.413Z,46.99
2022-09-05T09:16:06.676Z,49.23
2022-09-05T09:18:46.481Z,47.31
2022-09-05T09:21:26.604Z,47.41
2022-09-05T09:24:08.182Z,47.41
2022-09-05T09:26:43.651Z,49.25
2022-09-05T09:29:15.494Z,49.32
2022-09-05T09:32:09.863Z,44.05
2022-09-05T09:34:55.601Z,45.06
2022-09-05T09:38:13.825Z,40.60
2022-09-05T09:41:06.647Z,43.46
2022-09-05T09:43:57.686Z,45.06
2022-09-05T09:46:39.254Z,45.52
2022-09-05T09:49:25.162Z,44.03
2022-09-05T09:52:24.753Z,40.05
2022-09-05T09:55:41.087Z,40.83
2022-09-05T09:58:41.370Z,40.28
2022-09-05T10:01:36.401Z,41.02
2022-09-05T10:10:36.257Z,40.56
2022-09-05T10:10:44.354Z,40.28
2022-09-05T10:11:37.541Z,40.19
2022-09-05T10:14:40.134Z,39.48
2022-09-05T10:17:29.675Z,41.60
2022-09-05T10:20:40.567Z,39.21
2022-09-05T10:23:34.740Z,37.95
2022-09-05T10:26:31.663Z,36.88
2022-09-05T10:29:34.052Z,39.07
2022-09-05T10:34:53.482Z,41.29
2022-09-05T10:35:08.676Z,39.87
2022-09-05T10:37:44.431Z,40.42
2022-09-05T10:40:15.886Z,39.53
2022-09-05T10:42:58.091Z,38.50
2022-09-05T10:45:41.587Z,37.88
2022-09-05T10:48:19.090Z,38.67
2022-09-05T10:50:54.815Z,37.54
2022-09-05T10:53:39.102Z,38.08
2022-09-05T10:56:15.145Z,37.27
2022-09-05T11:01:33.441Z,35.03
2022-09-05T11:02:26.500Z,33.65
2022-09-05T11:05:05.751Z,35.19
2022-09-05T11:07:41.891Z,36.54
2022-09-05T11:10:17.587Z,36.84
2022-09-05T11:13:20.154Z,31.76
2022-09-05T11:16:10.293Z,33.80
2022-09-05T11:18:57.329Z,34.80
2022-09-05T11:22:19.881Z,34.29
2022-09-05T11:24:52.701Z,35.62
2022-09-05T11:27:31.186Z,34.34
2022-09-05T11:30:05.683Z,36.09
2022-09-05T11:39:52.577Z,31.80
2022-09-05T11:39:55.184Z,34.82
2022-09-05T11:40:02.119Z,31.11
2022-09-05T11:42:33.359Z,32.96
2022-09-05T11:45:22.440Z,31.75
2022-09-05T11:48:16.156Z,32.84
2022-09-05T11:51:26.092Z,31.64
2022-09-05T11:54:24.986Z,33.49
2022-09-05T11:57:33.490Z,30.94
2022-09-05T12:00:31.990Z,33.22
2022-09-05T12:03:59.824Z,33.18
2022-09-05T12:06:57.580Z,33.00
2022-09-05T12:09:47.704Z,32.09
2022-09-05T12:12:41.782Z,32.95
2022-09-05T12:15:26.934Z,31.35
2022-09-05T12:18:19.317Z,32.56
2022-09-05T12:20:58.305Z,34.36
2022-09-05T12:24:13.198Z,33.73
2022-09-05T12:27:40.469Z,33.20
2022-09-05T12:29:36.614Z,34.73
2022-09-05T12:33:45.492Z,34.39
2022-09-05T12:36:04.872Z,35.15
2022-09-05T12:40:28.626Z,33.65
2022-09-05T12:41:42.814Z,34.00
2022-09-05T12:44:41.973Z,32.88
2022-09-05T12:47:19.819Z,33.80
2022-09-05T12:50:14.556Z,32.08
2022-09-05T12:52:47.678Z,34.65
2022-09-05T12:55:26.521Z,31.83
2022-09-05T13:02:34.728Z,31.84
2022-09-05T13:03:09.657Z,30.71
2022-09-05T13:04:30.989Z,34.17
2022-09-05T13:07:05.800Z,33.93
2022-09-05T13:12:07.434Z,33.63
2022-09-05T13:14:48.704Z,34.17
2022-09-05T13:15:28.452Z,33.73
2022-09-05T13:18:15.390Z,30.68
2022-09-05T13:20:51.751Z,33.52
2022-09-05T13:23:24.967Z,34.41
2022-09-05T13:25:59.057Z,33.88
2022-09-05T13:28:44.901Z,34.11
2022-09-05T13:35:35.125Z,33.31
2022-09-05T13:38:05.482Z,34.40
2022-09-05T13:38:30.414Z,33.93
2022-09-05T13:39:57.629Z,34.02
2022-09-05T13:42:30.453Z,33.44
2022-09-05T13:45:00.925Z,33.90
2022-09-05T13:48:15.484Z,31.54
2022-09-05T13:50:55.077Z,33.95
2022-09-05T13:53:35.697Z,31.70
2022-09-05T13:56:23.233Z,31.80
2022-09-05T13:58:57.220Z,34.08
2022-09-05T14:01:54.601Z,30.37
2022-09-05T14:05:19.398Z,31.79
2022-09-05T14:08:19.431Z,32.88
2022-09-05T14:11:07.502Z,33.75
2022-09-05T14:13:59.696Z,33.36
2022-09-05T14:16:42.016Z,34.38
2022-09-05T14:19:43.471Z,34.97
2022-09-05T14:22:32.769Z,35.04
2022-09-05T14:25:03.607Z,35.62
2022-09-05T14:27:35.617Z,35.39
2022-09-05T14:32:14.457Z,36.25
2022-09-05T14:37:44.561Z,35.01
2022-09-05T14:37:52.712Z,35.73
2022-09-05T14:39:23.117Z,35.48
2022-09-05T14:42:34.327Z,34.71
2022-09-05T14:45:31.175Z,35.62
2022-09-05T14:48:36.002Z,35.74
2022-09-05T14:51:26.026Z,37.08
2022-09-05T14:54:00.344Z,37.03
2022-09-05T14:57:23.918Z,36.49
2022-09-05T15:02:49.443Z,37.29
2022-09-05T15:02:54.498Z,37.11
2022-09-05T15:05:21.601Z,37.36
2022-09-05T15:07:58.646Z,37.89
2022-09-05T15:12:18.561Z,37.25
2022-09-05T15:13:25.818Z,38.23
2022-09-05T15:16:02.789Z,37.42
2022-09-05T15:18:39.363Z,37.61
2022-09-05T15:21:30.660Z,36.89
2022-09-05T15:24:14.912Z,37.76
2022-09-05T15:26:53.099Z,36.98
2022-09-05T15:29:24.871Z,37.71
2022-09-05T15:31:59.463Z,38.00
2022-09-05T15:34:40.947Z,38.51
2022-09-05T15:37:24.654Z,37.25
2022-09-05T15:40:02.944Z,37.67
2022-09-05T15:42:34.583Z,38.54
2022-09-05T15:45:10.193Z,38.62
2022-09-05T15:47:45.327Z,39.17
2022-09-05T15:50:26.509Z,39.30
2022-09-05T15:52:57.008Z,39.46
2022-09-05T15:55:28.488Z,39.69
2022-09-05T15:58:00.267Z,39.90
2022-09-05T16:00:42.794Z,38.39
2022-09-05T16:07:45.950Z,39.53
2022-09-05T16:10:35.322Z,40.37
2022-09-05T16:10:48.475Z,40.72
2022-09-05T16:12:17.074Z,40.99
2022-09-05T16:15:19.838Z,41.16
2022-09-05T16:23:17.150Z,41.29
2022-09-05T16:23:31.628Z,41.96
2022-09-05T16:23:40.515Z,42.40
2022-09-05T16:26:25.857Z,42.45
2022-09-05T16:28:59.795Z,42.71
2022-09-05T16:31:38.860Z,42.61
2022-09-05T16:34:13.431Z,42.93
2022-09-05T16:37:07.870Z,42.95
2022-09-05T16:39:42.846Z,43.34
2022-09-05T16:42:18.621Z,43.53
2022-09-05T16:44:54.714Z,44.49
2022-09-05T16:47:29.910Z,44.40
2022-09-05T16:50:06.525Z,44.80
2022-09-05T16:53:28.222Z,45.87
2022-09-05T16:56:05.791Z,46.46
2022-09-05T16:58:40.210Z,46.75
2022-09-05T17:01:27.226Z,47.77
2022-09-05T17:03:58.636Z,47.84
2022-09-05T17:06:35.769Z,48.32
2022-09-05T17:09:13.473Z,48.97
2022-09-05T17:12:00.855Z,49.69
2022-09-05T17:14:35.633Z,50.33
2022-09-05T17:17:19.578Z,50.59
2022-09-05T17:20:07.107Z,51.08
2022-09-05T17:24:18.187Z,52.10
2022-09-05T17:29:27.608Z,52.20
2022-09-05T17:30:26.367Z,53.78
2022-09-05T17:32:19.054Z,53.72
2022-09-05T17:34:58.743Z,54.18
2022-09-05T17:38:11.323Z,55.37
2022-09-05T17:41:16.947Z,56.34
2022-09-05T17:43:51.722Z,55.82
2022-09-05T17:46:25.281Z,56.29
2022-09-05T17:49:18.255Z,57.81
2022-09-05T17:52:18.389Z,59.62
2022-09-05T17:54:49.500Z,58.92
2022-09-05T17:57:41.578Z,61.31
2022-09-05T18:00:43.848Z,61.85
2022-09-05T18:03:13.331Z,60.42
2022-09-05T18:06:04.916Z,62.83
2022-09-05T18:08:53.187Z,62.67
2022-09-05T18:11:37.726Z,62.36
2022-09-05T18:14:41.080Z,63.91
2022-09-05T18:17:52.513Z,63.84
2022-09-05T18:20:29.928Z,63.02
2022-09-05T18:23:18.165Z,63.13
2022-09-05T18:26:03.563Z,63.71
2022-09-05T18:28:40.820Z,63.67
2022-09-05T18:31:47.034Z,65.25
2022-09-05T18:35:11.620Z,65.51
2022-09-05T18:38:26.132Z,66.44
2022-09-05T18:41:23.474Z,65.87
2022-09-05T18:44:13.579Z,67.52
2022-09-05T18:46:51.176Z,66.83
2022-09-05T18:50:22.429Z,67.50
2022-09-05T18:52:23.448Z,67.81
2022-09-05T18:55:46.357Z,68.41
2022-09-05T18:57:57.887Z,69.09
2022-09-05T19:00:46.985Z,68.69
2022-09-05T19:03:25.052Z,69.96
2022-09-05T19:06:35.995Z,70.31
2022-09-05T19:08:54.442Z,70.73
2022-09-05T19:11:33.467Z,71.00
2022-09-05T19:14:25.961Z,72.82
2022-09-05T19:17:06.718Z,72.10
2022-09-05T19:20:31.050Z,74.38
2022-09-05T19:23:09.776Z,73.28
2022-09-05T19:25:41.488Z,78.35
2022-09-05T19:36:49.471Z,74.10
2022-09-05T19:37:09.247Z,74.34
2022-09-05T19:37:23.916Z,75.16
2022-09-05T19:46:41.623Z,75.09
2022-09-05T19:47:29.845Z,75.86
2022-09-05T19:47:41.874Z,76.46
2022-09-05T19:48:26.615Z,76.71
2022-09-05T19:50:56.609Z,77.03
2022-09-05T19:53:26.160Z,77.28
2022-09-05T19:55:55.137Z,76.87
2022-09-05T19:58:25.169Z,77.22
2022-09-05T20:01:03.510Z,79.31
2022-09-05T20:03:39.251Z,78.37
2022-09-05T20:06:29.416Z,79.16
2022-09-05T20:09:10.723Z,81.05
2022-09-05T20:11:46.212Z,79.44
2022-09-05T20:14:24.147Z,81.27
2022-09-05T20:16:55.386Z,80.81
2022-09-05T20:19:29.051Z,81.60
2022-09-05T20:22:10.093Z,81.57
2022-09-05T20:24:53.718Z,82.28
2022-09-05T20:27:27.595Z,82.03
2022-09-05T20:29:59.913Z,83.10
2022-09-05T20:32:39.338Z,82.71
2022-09-05T20:37:10.792Z,83.06
2022-09-05T20:43:17.029Z,82.56
2022-09-05T20:43:17.745Z,82.81
2022-09-05T20:43:57.564Z,82.68
2022-09-05T20:52:08.866Z,84.28
2022-09-05T20:54:05.995Z,83.36
2022-09-05T20:54:14.085Z,83.91
2022-09-05T20:55:38.362Z,84.02
2022-09-05T20:58:10.682Z,84.68
2022-09-05T21:00:46.376Z,84.36
2022-09-05T21:03:36.860Z,84.94
2022-09-05T21:06:23.708Z,84.87
2022-09-05T21:09:13.386Z,87.14
2022-09-05T21:11:42.663Z,85.93
2022-09-05T21:14:12.313Z,86.75
2022-09-05T21:16:45.366Z,86.46
2022-09-05T21:19:24.899Z,87.83
2022-09-05T21:22:04.417Z,87.62
2022-09-05T21:24:34.823Z,88.26
2022-09-05T21:27:17.941Z,89.44
2022-09-05T21:29:50.957Z,87.54
2022-09-05T21:32:37.812Z,87.64
2022-09-05T21:35:33.732Z,87.32
2022-09-05T21:38:02.264Z,88.08
2022-09-05T21:40:32.164Z,87.88
2022-09-05T21:47:33.355Z,87.59
2022-09-05T21:47:39.037Z,87.93
2022-09-05T21:48:41.365Z,87.68
2022-09-05T21:51:13.397Z,88.07
2022-09-05T21:59:10.272Z,89.00
2022-09-05T21:59:19.597Z,89.80
2022-09-05T21:59:40.040Z,88.85
2022-09-05T22:02:16.860Z,89.93
2022-09-05T22:04:47.314Z,89.90
2022-09-05T22:07:31.889Z,89.37
2022-09-05T22:10:03.403Z,89.35
2022-09-05T22:12:39.359Z,89.06
2022-09-05T22:15:28.547Z,88.36
2022-09-05T22:18:16.723Z,89.49
2022-09-05T22:21:02.929Z,89.15
2022-09-05T22:23:44.489Z,88.23
2022-09-05T22:26:14.322Z,88.65
2022-09-05T22:28:49.085Z,88.48
2022-09-05T22:31:18.473Z,88.67
2022-09-05T22:33:50.913Z,88.92
2022-09-05T22:36:19.929Z,88.70
2022-09-05T22:38:48.494Z,88.78
2022-09-05T22:41:17.795Z,88.91
2022-09-05T22:44:00.280Z,88.24
2022-09-05T22:46:29.648Z,88.21
2022-09-05T22:48:59.072Z,88.54
2022-09-05T22:51:27.742Z,88.63
2022-09-05T22:53:56.488Z,88.70
2022-09-05T22:56:33.476Z,89.23
2022-09-05T22:59:04.256Z,88.56
2022-09-05T23:01:34.035Z,88.68
2022-09-05T23:04:03.275Z,88.43
2022-09-05T23:06:34.631Z,88.65
2022-09-05T23:09:03.482Z,88.40
2022-09-05T23:11:32.236Z,88.46
2022-09-05T23:14:00.712Z,88.50
2022-09-05T23:16:30.834Z,88.79
2022-09-05T23:18:59.420Z,87.53
2022-09-05T23:21:28.204Z,88.61
2022-09-05T23:23:57.004Z,88.72
2022-09-05T23:26:25.368Z,88.74
2022-09-05T23:28:53.815Z,88.77
2022-09-05T23:31:22.732Z,89.23
2022-09-05T23:33:55.731Z,88.50
2022-09-05T23:36:24.981Z,89.35
2022-09-05T23:38:53.759Z,89.07
2022-09-05T23:41:22.143Z,88.89
2022-09-05T23:43:50.516Z,89.79
2022-09-05T23:46:19.121Z,90.00
2022-09-05T23:48:47.739Z,89.69
2022-09-05T23:51:18.245Z,89.98
2022-09-05T23:53:47.343Z,90.15
2022-09-05T23:56:16.085Z,89.84
2022-09-05T23:58:44.728Z,90.50
